createdAt,value
2019-02-15T00:00:43.549Z,1.27
2019-02-15T00:03:50.384Z,1.30
2019-02-15T00:06:57.334Z,1.32
2019-02-15T00:10:04.432Z,1.37
2019-02-15T00:13:13.779Z,1.33
2019-02-15T00:16:20.586Z,1.31
2019-02-15T00:19:38.204Z,1.32
2019-02-15T00:22:45.043Z,1.30
2019-02-15T00:25:52.100Z,1.25
2019-02-15T00:28:58.949Z,1.24
2019-02-15T00:32:06.238Z,1.32
2019-02-15T00:35:13.730Z,1.28
2019-02-15T00:38:20.592Z,1.20
2019-02-15T00:41:27.760Z,1.28
2019-02-15T00:44:34.609Z,1.23
2019-02-15T00:47:45.773Z,1.27
2019-02-15T00:51:11.551Z,1.19
2019-02-15T00:54:27.011Z,1.15
2019-02-15T00:57:51.605Z,1.12
2019-02-15T01:01:10.804Z,1.19
2019-02-15T01:04:34.253Z,1.17
2019-02-15T01:07:59.982Z,1.10
2019-02-15T01:11:28.726Z,1.13
2019-02-15T01:14:35.627Z,1.12
2019-02-15T01:17:42.628Z,1.24
2019-02-15T01:20:49.660Z,1.22
2019-02-15T01:23:56.447Z,1.20
2019-02-15T01:27:16.452Z,1.25
2019-02-15T01:30:48.681Z,1.28
2019-02-15T01:34:16.409Z,1.32
2019-02-15T01:37:29.638Z,1.36
2019-02-15T01:40:56.888Z,1.26
2019-02-15T01:44:09.930Z,1.26
2019-02-15T01:47:29.480Z,1.14
2019-02-15T01:50:36.318Z,1.15
2019-02-15T01:53:43.393Z,1.14
2019-02-15T01:56:50.179Z,1.25
2019-02-15T01:59:57.074Z,1.09
2019-02-15T02:03:03.942Z,1.10
2019-02-15T02:06:12.247Z,0.98
2019-02-15T02:09:20.137Z,0.98
2019-02-15T02:12:26.969Z,0.94
2019-02-15T02:15:33.769Z,0.85
2019-02-15T02:18:47.299Z,0.90
2019-02-15T02:21:56.222Z,0.84
2019-02-15T02:25:06.126Z,0.81
2019-02-15T02:28:13.885Z,0.80
2019-02-15T02:31:20.816Z,0.82
2019-02-15T02:34:27.868Z,0.78
2019-02-15T02:37:36.648Z,0.84
2019-02-15T02:40:43.616Z,0.77
2019-02-15T02:43:59.464Z,0.68
2019-02-15T02:46:59.604Z,0.76
2019-02-15T02:50:06.703Z,0.68
2019-02-15T02:53:13.569Z,0.63
2019-02-15T02:56:20.648Z,0.63
2019-02-15T02:59:27.622Z,0.62
2019-02-15T03:02:34.540Z,0.64
2019-02-15T03:05:41.637Z,0.56
2019-02-15T03:08:48.576Z,0.65
2019-02-15T03:11:55.583Z,0.66
2019-02-15T03:15:02.513Z,0.68
2019-02-15T03:18:09.352Z,0.77
2019-02-15T03:21:19.229Z,0.77
2019-02-15T03:24:24.971Z,0.79
2019-02-15T03:27:34.006Z,0.72
2019-02-15T03:30:40.865Z,0.79
2019-02-15T03:33:47.758Z,0.80
2019-02-15T03:37:22.612Z,0.76
2019-02-15T03:40:48.438Z,0.81
2019-02-15T03:43:56.314Z,0.80
2019-02-15T03:47:04.578Z,0.79
2019-02-15T03:50:11.561Z,0.83
2019-02-15T03:53:18.437Z,0.85
2019-02-15T03:56:25.373Z,0.87
2019-02-15T03:59:32.325Z,0.79
2019-02-15T04:02:39.184Z,0.81
2019-02-15T04:05:46.011Z,0.80
2019-02-15T04:08:52.879Z,0.85
2019-02-15T04:11:59.774Z,0.81
2019-02-15T04:15:09.417Z,0.79
2019-02-15T04:18:15.936Z,0.75
2019-02-15T04:21:22.822Z,0.71
2019-02-15T04:24:29.638Z,0.72
2019-02-15T04:27:36.514Z,0.71
2019-02-15T04:30:43.556Z,0.64
2019-02-15T04:33:53.173Z,0.66
2019-02-15T04:37:00.002Z,0.71
2019-02-15T04:40:08.185Z,0.63
2019-02-15T04:43:15.069Z,0.65
2019-02-15T04:46:21.848Z,0.59
2019-02-15T04:49:29.211Z,0.60
2019-02-15T04:52:36.140Z,0.61
2019-02-15T04:55:43.601Z,0.60
2019-02-15T04:58:50.640Z,0.51
2019-02-15T05:01:57.618Z,0.56
2019-02-15T05:05:05.581Z,0.51
2019-02-15T05:08:12.606Z,0.53
2019-02-15T05:11:20.546Z,0.50
2019-02-15T05:14:27.566Z,0.49
2019-02-15T05:17:34.354Z,0.45
2019-02-15T05:20:41.175Z,0.46
2019-02-15T05:23:50.392Z,0.47
2019-02-15T05:26:57.282Z,0.43
2019-02-15T05:30:04.049Z,0.41
2019-02-15T05:33:10.869Z,0.48
2019-02-15T05:36:17.636Z,0.38
2019-02-15T05:39:25.962Z,0.42
2019-02-15T05:42:32.794Z,0.34
2019-02-15T05:45:41.201Z,0.29
2019-02-15T05:48:48.280Z,0.34
2019-02-15T05:51:55.635Z,0.31
2019-02-15T05:55:02.671Z,0.37
2019-02-15T05:58:09.553Z,0.32
2019-02-15T06:01:17.111Z,0.30
2019-02-15T06:04:25.155Z,0.37
2019-02-15T06:07:32.025Z,0.32
2019-02-15T06:10:38.963Z,0.30
2019-02-15T06:13:45.972Z,0.27
2019-02-15T06:16:52.803Z,0.25
2019-02-15T06:19:59.654Z,0.25
2019-02-15T06:23:07.671Z,0.30
2019-02-15T06:26:14.788Z,0.31
2019-02-15T06:29:21.610Z,0.38
2019-02-15T06:32:28.476Z,0.30
2019-02-15T06:35:35.480Z,0.27
2019-02-15T06:38:42.294Z,0.37
2019-02-15T06:41:49.273Z,0.33
2019-02-15T06:44:56.267Z,0.37
2019-02-15T06:48:03.288Z,0.46
2019-02-15T06:51:10.264Z,0.47
2019-02-15T06:54:17.581Z,0.51
2019-02-15T06:57:24.506Z,0.51
2019-02-15T07:01:05.681Z,0.52
2019-02-15T07:04:29.897Z,0.54
2019-02-15T07:07:36.897Z,0.56
2019-02-15T07:10:43.729Z,0.60
2019-02-15T07:13:52.499Z,0.63
2019-02-15T07:16:59.355Z,0.73
2019-02-15T07:20:08.064Z,0.74
2019-02-15T07:23:16.059Z,0.81
2019-02-15T07:26:23.034Z,0.87
2019-02-15T07:29:29.928Z,0.90
2019-02-15T07:32:36.825Z,0.97
2019-02-15T07:35:43.996Z,1.12
2019-02-15T07:38:51.197Z,1.22
2019-02-15T07:41:58.076Z,1.25
2019-02-15T07:45:05.104Z,1.34
2019-02-15T07:48:12.126Z,1.34
2019-02-15T07:51:18.934Z,1.48
2019-02-15T07:54:27.400Z,1.57
2019-02-15T07:57:34.230Z,1.71
2019-02-15T08:00:41.110Z,1.75
2019-02-15T08:03:48.066Z,1.82
2019-02-15T08:06:55.144Z,2.02
2019-02-15T08:10:02.047Z,2.22
2019-02-15T08:13:08.930Z,2.36
2019-02-15T08:16:15.943Z,2.50
2019-02-15T08:19:22.815Z,2.49
2019-02-15T08:22:29.707Z,2.70
2019-02-15T08:25:36.608Z,3.01
2019-02-15T08:28:43.573Z,2.95
2019-02-15T08:31:50.448Z,3.05
2019-02-15T08:34:57.407Z,3.00
2019-02-15T08:38:04.294Z,3.18
2019-02-15T08:41:11.275Z,3.15
2019-02-15T08:44:18.219Z,3.37
2019-02-15T08:47:25.264Z,3.48
2019-02-15T08:50:32.058Z,3.57
2019-02-15T08:53:38.913Z,3.73
2019-02-15T08:56:46.152Z,3.95
2019-02-15T08:59:54.086Z,3.97
2019-02-15T09:03:01.148Z,4.23
2019-02-15T09:06:08.219Z,4.39
2019-02-15T09:09:15.114Z,4.53
2019-02-15T09:12:22.045Z,4.67
2019-02-15T09:15:29.007Z,4.84
2019-02-15T09:18:35.860Z,4.96
2019-02-15T09:21:42.732Z,5.08
2019-02-15T09:24:49.665Z,5.36
2019-02-15T09:28:14.917Z,5.49
2019-02-15T09:31:21.933Z,5.53
2019-02-15T09:34:28.868Z,5.68
2019-02-15T09:37:37.084Z,5.85
2019-02-15T09:40:45.049Z,5.91
2019-02-15T09:43:51.890Z,6.01
2019-02-15T09:46:58.864Z,6.24
2019-02-15T09:50:07.539Z,6.58
2019-02-15T09:53:15.114Z,6.57
2019-02-15T09:56:22.021Z,6.63
2019-02-15T09:59:32.165Z,6.88
2019-02-15T10:02:39.166Z,7.12
2019-02-15T10:05:45.954Z,7.14
2019-02-15T10:08:52.865Z,7.18
2019-02-15T10:11:59.728Z,7.52
2019-02-15T10:15:07.097Z,7.44
2019-02-15T10:18:14.183Z,7.59
2019-02-15T10:21:27.275Z,7.87
2019-02-15T10:24:43.353Z,8.16
2019-02-15T10:27:54.603Z,8.24
2019-02-15T10:31:02.835Z,8.66
2019-02-15T10:34:11.113Z,8.74
2019-02-15T10:37:19.144Z,8.60
2019-02-15T10:40:26.069Z,8.51
2019-02-15T10:43:33.268Z,9.11
2019-02-15T10:46:40.392Z,8.97
2019-02-15T10:49:47.281Z,9.16
2019-02-15T10:52:54.429Z,9.19
2019-02-15T10:56:01.758Z,9.49
2019-02-15T10:59:08.864Z,9.68
2019-02-15T11:02:17.060Z,9.94
2019-02-15T11:05:24.179Z,9.92
2019-02-15T11:08:31.582Z,10.16
2019-02-15T11:11:38.868Z,10.45
2019-02-15T11:14:46.277Z,10.44
2019-02-15T11:17:54.572Z,10.25
2019-02-15T11:21:01.484Z,10.55
2019-02-15T11:24:08.418Z,10.63
2019-02-15T11:27:15.363Z,11.07
2019-02-15T11:30:22.450Z,11.04
2019-02-15T11:33:29.255Z,11.03
2019-02-15T11:36:36.384Z,11.27
2019-02-15T11:39:43.368Z,11.63
2019-02-15T11:42:50.310Z,11.51
2019-02-15T11:45:57.291Z,11.59
2019-02-15T11:49:07.117Z,11.92
2019-02-15T11:52:14.147Z,11.58
2019-02-15T11:55:21.364Z,11.86
2019-02-15T11:58:29.507Z,12.02
2019-02-15T12:01:37.595Z,12.06
2019-02-15T12:04:44.833Z,12.02
2019-02-15T12:07:51.765Z,12.30
2019-02-15T12:10:58.858Z,12.51
2019-02-15T12:14:05.892Z,12.39
2019-02-15T12:17:16.410Z,12.52
2019-02-15T12:20:23.363Z,12.63
2019-02-15T12:23:30.261Z,12.53
2019-02-15T12:26:37.177Z,12.64
2019-02-15T12:29:44.078Z,12.58
2019-02-15T12:32:56.079Z,12.46
2019-02-15T12:36:03.139Z,12.68
2019-02-15T12:39:14.291Z,12.77
2019-02-15T12:42:21.007Z,12.93
2019-02-15T12:45:27.909Z,12.65
2019-02-15T12:48:34.838Z,12.77
2019-02-15T12:51:41.752Z,12.92
2019-02-15T12:54:48.729Z,13.09
2019-02-15T12:57:55.615Z,13.29
2019-02-15T13:01:02.702Z,13.28
2019-02-15T13:04:11.020Z,13.29
2019-02-15T13:07:18.208Z,13.25
2019-02-15T13:10:28.531Z,13.14
2019-02-15T13:13:35.652Z,13.21
2019-02-15T13:16:42.644Z,13.28
2019-02-15T13:19:49.516Z,13.32
2019-02-15T13:22:56.450Z,13.27
2019-02-15T13:26:08.493Z,13.39
2019-02-15T13:29:13.528Z,13.42
2019-02-15T13:32:25.328Z,13.59
2019-02-15T13:35:32.390Z,13.60
2019-02-15T13:38:40.968Z,13.55
2019-02-15T13:41:48.089Z,13.57
2019-02-15T13:44:59.533Z,13.60
2019-02-15T13:48:06.862Z,13.57
2019-02-15T13:51:14.018Z,13.62
2019-02-15T13:54:21.124Z,13.55
2019-02-15T13:57:28.711Z,13.62
2019-02-15T14:00:35.651Z,13.64
2019-02-15T14:03:42.671Z,13.70
2019-02-15T14:06:56.365Z,13.83
2019-02-15T14:10:04.357Z,13.87
2019-02-15T14:13:11.318Z,13.84
2019-02-15T14:16:18.245Z,14.15
2019-02-15T14:19:25.243Z,14.23
2019-02-15T14:22:32.191Z,14.02
2019-02-15T14:25:39.247Z,14.06
2019-02-15T14:28:46.153Z,14.07
2019-02-15T14:31:53.165Z,13.92
2019-02-15T14:35:02.246Z,13.81
2019-02-15T14:38:09.085Z,13.93
2019-02-15T14:41:16.656Z,13.77
2019-02-15T14:44:23.670Z,13.68
2019-02-15T14:47:31.545Z,13.67
2019-02-15T14:50:38.532Z,13.50
2019-02-15T14:53:45.333Z,13.59
2019-02-15T14:56:52.301Z,13.40
2019-02-15T14:59:59.146Z,13.03
2019-02-15T15:03:06.124Z,13.21
2019-02-15T15:06:13.586Z,13.18
2019-02-15T15:09:20.446Z,12.97
2019-02-15T15:12:27.825Z,13.42
2019-02-15T15:15:35.036Z,13.08
2019-02-15T15:18:41.998Z,13.38
2019-02-15T15:21:48.900Z,13.01
2019-02-15T15:24:55.968Z,12.71
2019-02-15T15:28:02.810Z,12.50
2019-02-15T15:31:11.330Z,12.34
2019-02-15T15:34:18.427Z,12.24
2019-02-15T15:37:25.420Z,12.22
2019-02-15T15:40:32.393Z,12.04
2019-02-15T15:43:39.256Z,11.85
2019-02-15T15:46:46.092Z,11.75
2019-02-15T15:49:53.099Z,11.53
2019-02-15T15:53:00.049Z,11.16
2019-02-15T15:56:06.930Z,11.14
2019-02-15T15:59:15.105Z,11.04
2019-02-15T16:02:22.046Z,10.77
2019-02-15T16:05:29.155Z,10.59
2019-02-15T16:08:36.169Z,10.43
2019-02-15T16:11:43.288Z,10.02
2019-02-15T16:14:53.208Z,10.05
2019-02-15T16:17:59.857Z,10.23
2019-02-15T16:21:06.885Z,10.19
2019-02-15T16:24:14.104Z,10.07
2019-02-15T16:27:21.044Z,10.04
2019-02-15T16:30:27.969Z,9.77
2019-02-15T16:33:34.794Z,9.53
2019-02-15T16:36:41.980Z,9.26
2019-02-15T16:39:48.774Z,9.12
2019-02-15T16:42:55.746Z,8.92
2019-02-15T16:46:02.593Z,8.72
2019-02-15T16:49:09.953Z,8.75
2019-02-15T16:52:16.924Z,8.60
2019-02-15T16:55:23.771Z,8.30
2019-02-15T16:58:30.551Z,7.96
2019-02-15T17:01:37.964Z,7.27
2019-02-15T17:04:44.989Z,7.84
2019-02-15T17:07:52.155Z,7.88
2019-02-15T17:10:59.529Z,7.88
2019-02-15T17:14:06.467Z,6.96
2019-02-15T17:17:13.823Z,7.24
2019-02-15T17:20:20.673Z,6.93
2019-02-15T17:23:27.437Z,7.36
2019-02-15T17:26:34.380Z,6.96
2019-02-15T17:29:41.264Z,7.41
2019-02-15T17:32:48.190Z,6.93
2019-02-15T17:35:55.160Z,7.20
2019-02-15T17:39:04.255Z,7.48
2019-02-15T17:42:13.629Z,7.29
2019-02-15T17:45:20.745Z,7.03
2019-02-15T17:48:27.669Z,6.96
2019-02-15T17:51:34.702Z,6.62
2019-02-15T17:54:41.997Z,6.64
2019-02-15T17:57:48.895Z,6.67
2019-02-15T18:00:57.247Z,6.63
2019-02-15T18:04:04.180Z,6.69
2019-02-15T18:07:12.786Z,6.55
2019-02-15T18:10:19.699Z,6.59
2019-02-15T18:13:26.605Z,6.42
2019-02-15T18:16:33.533Z,6.56
2019-02-15T18:19:47.027Z,5.99
2019-02-15T18:22:49.482Z,6.47
2019-02-15T18:25:56.540Z,6.42
2019-02-15T18:29:03.483Z,6.53
2019-02-15T18:32:13.452Z,6.58
2019-02-15T18:35:20.379Z,6.60
2019-02-15T18:38:27.439Z,6.67
2019-02-15T18:41:34.565Z,6.66
2019-02-15T18:44:41.372Z,6.71
2019-02-15T18:47:48.374Z,6.69
2019-02-15T18:50:55.260Z,6.77
2019-02-15T18:54:02.278Z,6.68
2019-02-15T18:57:09.227Z,6.60
2019-02-15T19:00:22.543Z,6.38
2019-02-15T19:03:29.647Z,6.44
2019-02-15T19:06:39.326Z,6.38
2019-02-15T19:09:46.395Z,6.24
2019-02-15T19:12:53.629Z,6.24
2019-02-15T19:16:01.790Z,6.12
2019-02-15T19:19:11.916Z,6.07
2019-02-15T19:22:22.747Z,6.04
2019-02-15T19:25:31.314Z,5.78
2019-02-15T19:28:39.348Z,5.83
2019-02-15T19:31:49.809Z,5.80
2019-02-15T19:34:58.032Z,5.71
2019-02-15T19:38:08.909Z,5.48
2019-02-15T19:41:17.014Z,5.42
2019-02-15T19:44:24.039Z,5.32
2019-02-15T19:47:30.970Z,5.39
2019-02-15T19:50:39.064Z,5.39
2019-02-15T19:53:46.029Z,5.34
2019-02-15T19:56:53.457Z,5.40
2019-02-15T20:00:00.733Z,5.37
2019-02-15T20:03:07.874Z,5.28
2019-02-15T20:06:15.116Z,5.22
2019-02-15T20:09:21.958Z,5.21
2019-02-15T20:12:28.881Z,5.12
2019-02-15T20:15:36.217Z,4.84
2019-02-15T20:18:43.349Z,5.02
2019-02-15T20:21:50.453Z,5.09
2019-02-15T20:24:58.749Z,4.93
2019-02-15T20:28:13.613Z,4.95
2019-02-15T20:31:14.887Z,4.72
2019-02-15T20:34:21.777Z,4.62
2019-02-15T20:37:28.755Z,4.74
2019-02-15T20:40:35.722Z,4.67
2019-02-15T20:43:42.683Z,4.77
2019-02-15T20:46:49.748Z,4.53
2019-02-15T20:49:58.308Z,4.42
2019-02-15T20:53:05.437Z,4.40
2019-02-15T20:56:12.490Z,4.38
2019-02-15T20:59:19.493Z,4.22
2019-02-15T21:02:26.389Z,4.18
2019-02-15T21:05:33.300Z,4.21
2019-02-15T21:08:40.440Z,4.27
2019-02-15T21:11:47.453Z,4.26
2019-02-15T21:14:54.310Z,4.33
2019-02-15T21:18:01.515Z,4.04
2019-02-15T21:21:08.484Z,4.04
2019-02-15T21:24:15.809Z,4.10
2019-02-15T21:27:22.878Z,4.07
2019-02-15T21:30:29.878Z,3.71
2019-02-15T21:33:36.774Z,3.79
2019-02-15T21:36:45.050Z,3.35
2019-02-15T21:39:51.920Z,3.63
2019-02-15T21:42:59.031Z,3.73
2019-02-15T21:46:06.068Z,3.59
2019-02-15T21:49:13.643Z,3.43
2019-02-15T21:52:22.864Z,3.49
2019-02-15T21:55:31.195Z,3.49
2019-02-15T21:58:38.210Z,3.49
2019-02-15T22:01:45.059Z,3.41
2019-02-15T22:04:52.072Z,3.40
2019-02-15T22:07:58.942Z,3.42
2019-02-15T22:11:05.896Z,3.40
2019-02-15T22:14:14.392Z,3.42
2019-02-15T22:17:21.524Z,3.20
2019-02-15T22:20:28.484Z,3.40
2019-02-15T22:23:35.353Z,3.43
2019-02-15T22:26:42.228Z,3.46
2019-02-15T22:29:50.308Z,3.34
2019-02-15T22:32:57.255Z,3.32
2019-02-15T22:36:04.137Z,3.39
2019-02-15T22:39:11.247Z,3.28
2019-02-15T22:42:18.120Z,3.28
2019-02-15T22:45:25.191Z,3.28
2019-02-15T22:48:32.047Z,3.01
2019-02-15T22:51:39.317Z,3.18
2019-02-15T22:54:46.192Z,3.02
2019-02-15T22:57:53.042Z,2.95
2019-02-15T23:01:20.391Z,2.73
2019-02-15T23:04:27.528Z,2.85
2019-02-15T23:07:36.199Z,2.83
2019-02-15T23:10:43.053Z,2.77
2019-02-15T23:13:49.992Z,2.91
2019-02-15T23:16:57.032Z,3.14
2019-02-15T23:20:03.981Z,3.25
2019-02-15T23:23:11.080Z,3.13
2019-02-15T23:26:17.864Z,3.07
2019-02-15T23:29:24.931Z,2.92
2019-02-15T23:32:32.137Z,2.86
2019-02-15T23:35:39.035Z,2.83
2019-02-15T23:38:45.899Z,2.93
2019-02-15T23:41:53.004Z,2.95
2019-02-15T23:44:59.788Z,2.83
2019-02-15T23:48:06.688Z,2.75
2019-02-15T23:51:14.153Z,2.66
2019-02-15T23:54:22.404Z,2.73
2019-02-15T23:57:29.361Z,2.60
